sensor_id;sensor_type;location;lat;lon;timestamp;P1;durP1;ratioP1;P2;durP2;ratioP2
20639;SDS011;10479;53.524;9.846;2023-04-03T00:00:46;12.30;;;2.00;;
20639;SDS011;10479;53.524;9.846;2023-04-03T00:03:11;13.20;;;3.08;;
20639;SDS011;10479;53.524;9.846;2023-04-03T00:05:37;9.40;;;2.17;;
20639;SDS011;10479;53.524;9.846;2023-04-03T00:08:02;15.85;;;2.50;;
20639;SDS011;10479;53.524;9.846;2023-04-03T00:10:29;9.50;;;2.25;;
20639;SDS011;10479;53.524;9.846;2023-04-03T00:12:55;13.82;;;2.42;;
20639;SDS011;10479;53.524;9.846;2023-04-03T00:15:20;9.77;;;2.35;;
20639;SDS011;10479;53.524;9.846;2023-04-03T00:17:46;8.52;;;2.20;;
20639;SDS011;10479;53.524;9.846;2023-04-03T00:20:11;11.45;;;2.50;;
20639;SDS011;10479;53.524;9.846;2023-04-03T00:22:37;12.02;;;2.30;;
20639;SDS011;10479;53.524;9.846;2023-04-03T00:25:02;13.68;;;3.22;;
20639;SDS011;10479;53.524;9.846;2023-04-03T00:27:28;8.30;;;2.00;;
20639;SDS011;10479;53.524;9.846;2023-04-03T00:29:54;10.45;;;2.28;;
20639;SDS011;10479;53.524;9.846;2023-04-03T00:32:19;10.10;;;2.13;;
20639;SDS011;10479;53.524;9.846;2023-04-03T00:34:44;17.08;;;2.33;;
20639;SDS011;10479;53.524;9.846;2023-04-03T00:37:10;10.00;;;1.95;;
20639;SDS011;10479;53.524;9.846;2023-04-03T00:39:35;9.75;;;2.33;;
20639;SDS011;10479;53.524;9.846;2023-04-03T00:42:01;13.50;;;2.25;;
20639;SDS011;10479;53.524;9.846;2023-04-03T00:46:58;8.30;;;1.83;;
20639;SDS011;10479;53.524;9.846;2023-04-03T00:49:24;10.98;;;2.20;;
20639;SDS011;10479;53.524;9.846;2023-04-03T00:51:50;10.77;;;2.30;;
20639;SDS011;10479;53.524;9.846;2023-04-03T00:54:16;16.45;;;2.67;;
20639;SDS011;10479;53.524;9.846;2023-04-03T00:56:41;12.75;;;2.55;;
20639;SDS011;10479;53.524;9.846;2023-04-03T00:59:08;16.58;;;3.10;;
20639;SDS011;10479;53.524;9.846;2023-04-03T01:01:36;10.73;;;2.47;;
20639;SDS011;10479;53.524;9.846;2023-04-03T01:04:02;11.07;;;2.40;;
20639;SDS011;10479;53.524;9.846;2023-04-03T01:06:30;13.15;;;2.58;;
20639;SDS011;10479;53.524;9.846;2023-04-03T01:08:59;10.30;;;2.47;;
20639;SDS011;10479;53.524;9.846;2023-04-03T01:11:24;8.38;;;2.35;;
20639;SDS011;10479;53.524;9.846;2023-04-03T01:13:51;14.05;;;2.85;;
20639;SDS011;10479;53.524;9.846;2023-04-03T01:16:17;7.97;;;2.28;;
20639;SDS011;10479;53.524;9.846;2023-04-03T01:18:42;13.13;;;3.15;;
20639;SDS011;10479;53.524;9.846;2023-04-03T01:24:17;10.23;;;2.10;;
20639;SDS011;10479;53.524;9.846;2023-04-03T01:26:37;8.87;;;2.10;;
20639;SDS011;10479;53.524;9.846;2023-04-03T01:29:03;10.90;;;2.22;;
20639;SDS011;10479;53.524;9.846;2023-04-03T01:31:38;11.40;;;1.80;;
20639;SDS011;10479;53.524;9.846;2023-04-03T01:34:06;9.48;;;2.45;;
20639;SDS011;10479;53.524;9.846;2023-04-03T01:36:32;9.48;;;2.00;;
20639;SDS011;10479;53.524;9.846;2023-04-03T01:38:58;11.63;;;2.35;;
20639;SDS011;10479;53.524;9.846;2023-04-03T01:41:25;6.93;;;2.08;;
20639;SDS011;10479;53.524;9.846;2023-04-03T01:43:51;8.40;;;2.17;;
20639;SDS011;10479;53.524;9.846;2023-04-03T01:46:17;8.07;;;2.25;;
20639;SDS011;10479;53.524;9.846;2023-04-03T01:48:43;8.48;;;1.90;;
20639;SDS011;10479;53.524;9.846;2023-04-03T01:51:08;9.45;;;2.25;;
20639;SDS011;10479;53.524;9.846;2023-04-03T01:53:34;6.75;;;2.05;;
20639;SDS011;10479;53.524;9.846;2023-04-03T01:56:00;10.45;;;2.20;;
20639;SDS011;10479;53.524;9.846;2023-04-03T01:58:25;7.88;;;2.03;;
20639;SDS011;10479;53.524;9.846;2023-04-03T02:00:51;9.55;;;2.35;;
20639;SDS011;10479;53.524;9.846;2023-04-03T02:03:17;7.90;;;2.30;;
20639;SDS011;10479;53.524;9.846;2023-04-03T02:05:43;13.40;;;2.15;;
20639;SDS011;10479;53.524;9.846;2023-04-03T02:08:08;10.60;;;2.45;;
20639;SDS011;10479;53.524;9.846;2023-04-03T02:10:34;16.85;;;2.50;;
20639;SDS011;10479;53.524;9.846;2023-04-03T02:12:59;8.15;;;2.25;;
20639;SDS011;10479;53.524;9.846;2023-04-03T02:15:25;11.02;;;2.33;;
20639;SDS011;10479;53.524;9.846;2023-04-03T02:17:51;8.77;;;2.30;;
20639;SDS011;10479;53.524;9.846;2023-04-03T02:20:17;10.43;;;2.47;;
20639;SDS011;10479;53.524;9.846;2023-04-03T02:22:42;8.48;;;2.60;;
20639;SDS011;10479;53.524;9.846;2023-04-03T02:25:08;12.05;;;2.75;;
20639;SDS011;10479;53.524;9.846;2023-04-03T02:27:34;9.38;;;2.65;;
20639;SDS011;10479;53.524;9.846;2023-04-03T02:30:00;10.10;;;2.20;;
20639;SDS011;10479;53.524;9.846;2023-04-03T02:32:26;8.18;;;2.75;;
20639;SDS011;10479;53.524;9.846;2023-04-03T02:34:51;10.00;;;2.28;;
20639;SDS011;10479;53.524;9.846;2023-04-03T02:37:17;14.05;;;2.83;;
20639;SDS011;10479;53.524;9.846;2023-04-03T02:39:42;12.55;;;3.00;;
20639;SDS011;10479;53.524;9.846;2023-04-03T02:42:08;8.43;;;2.90;;
20639;SDS011;10479;53.524;9.846;2023-04-03T02:44:33;10.20;;;2.92;;
20639;SDS011;10479;53.524;9.846;2023-04-03T02:46:59;13.98;;;2.70;;
20639;SDS011;10479;53.524;9.846;2023-04-03T02:49:24;12.73;;;2.63;;
20639;SDS011;10479;53.524;9.846;2023-04-03T02:51:50;10.30;;;2.67;;
20639;SDS011;10479;53.524;9.846;2023-04-03T02:54:16;11.30;;;2.88;;
20639;SDS011;10479;53.524;9.846;2023-04-03T02:56:41;10.20;;;2.63;;
20639;SDS011;10479;53.524;9.846;2023-04-03T02:59:07;13.30;;;2.92;;
20639;SDS011;10479;53.524;9.846;2023-04-03T03:01:32;9.32;;;2.72;;
20639;SDS011;10479;53.524;9.846;2023-04-03T03:04:00;18.83;;;3.65;;
20639;SDS011;10479;53.524;9.846;2023-04-03T03:06:26;12.65;;;3.17;;
20639;SDS011;10479;53.524;9.846;2023-04-03T03:08:52;11.88;;;2.60;;
20639;SDS011;10479;53.524;9.846;2023-04-03T03:11:17;13.27;;;3.80;;
20639;SDS011;10479;53.524;9.846;2023-04-03T03:13:43;13.90;;;3.10;;
20639;SDS011;10479;53.524;9.846;2023-04-03T03:16:09;8.23;;;3.13;;
20639;SDS011;10479;53.524;9.846;2023-04-03T03:18:34;10.98;;;3.03;;
20639;SDS011;10479;53.524;9.846;2023-04-03T03:21:00;11.93;;;3.00;;
20639;SDS011;10479;53.524;9.846;2023-04-03T03:23:28;18.23;;;3.63;;
20639;SDS011;10479;53.524;9.846;2023-04-03T03:25:55;11.48;;;3.00;;
20639;SDS011;10479;53.524;9.846;2023-04-03T03:28:25;12.45;;;2.60;;
20639;SDS011;10479;53.524;9.846;2023-04-03T03:30:50;10.65;;;2.90;;
20639;SDS011;10479;53.524;9.846;2023-04-03T03:33:16;15.93;;;3.30;;
20639;SDS011;10479;53.524;9.846;2023-04-03T03:35:42;12.93;;;3.03;;
20639;SDS011;10479;53.524;9.846;2023-04-03T03:38:08;8.98;;;2.90;;
20639;SDS011;10479;53.524;9.846;2023-04-03T03:40:34;10.20;;;3.10;;
20639;SDS011;10479;53.524;9.846;2023-04-03T03:43:00;13.52;;;3.03;;
20639;SDS011;10479;53.524;9.846;2023-04-03T03:45:25;9.10;;;2.35;;
20639;SDS011;10479;53.524;9.846;2023-04-03T03:47:51;11.55;;;2.80;;
20639;SDS011;10479;53.524;9.846;2023-04-03T03:50:16;12.10;;;2.72;;
20639;SDS011;10479;53.524;9.846;2023-04-03T03:52:42;15.30;;;2.60;;
20639;SDS011;10479;53.524;9.846;2023-04-03T03:55:07;13.25;;;2.80;;
20639;SDS011;10479;53.524;9.846;2023-04-03T03:57:33;12.60;;;3.17;;
20639;SDS011;10479;53.524;9.846;2023-04-03T03:59:58;12.68;;;3.72;;
20639;SDS011;10479;53.524;9.846;2023-04-03T04:02:24;11.27;;;2.72;;
20639;SDS011;10479;53.524;9.846;2023-04-03T04:04:49;8.57;;;2.70;;
20639;SDS011;10479;53.524;9.846;2023-04-03T04:07:15;9.63;;;2.30;;
20639;SDS011;10479;53.524;9.846;2023-04-03T04:09:41;8.00;;;2.10;;
20639;SDS011;10479;53.524;9.846;2023-04-03T04:12:06;14.98;;;2.83;;
20639;SDS011;10479;53.524;9.846;2023-04-03T04:14:32;10.57;;;2.50;;
20639;SDS011;10479;53.524;9.846;2023-04-03T04:16:57;11.32;;;2.88;;
20639;SDS011;10479;53.524;9.846;2023-04-03T04:19:22;13.45;;;3.63;;
20639;SDS011;10479;53.524;9.846;2023-04-03T04:21:48;12.32;;;3.20;;
20639;SDS011;10479;53.524;9.846;2023-04-03T04:24:14;10.57;;;2.65;;
20639;SDS011;10479;53.524;9.846;2023-04-03T04:26:39;14.98;;;2.78;;
20639;SDS011;10479;53.524;9.846;2023-04-03T04:29:05;15.35;;;3.28;;
20639;SDS011;10479;53.524;9.846;2023-04-03T04:31:30;8.80;;;2.88;;
20639;SDS011;10479;53.524;9.846;2023-04-03T04:33:55;9.70;;;2.55;;
20639;SDS011;10479;53.524;9.846;2023-04-03T04:36:21;14.52;;;3.13;;
20639;SDS011;10479;53.524;9.846;2023-04-03T04:38:46;15.05;;;2.67;;
20639;SDS011;10479;53.524;9.846;2023-04-03T04:41:12;17.15;;;2.67;;
20639;SDS011;10479;53.524;9.846;2023-04-03T04:43:37;11.57;;;2.60;;
20639;SDS011;10479;53.524;9.846;2023-04-03T04:46:04;10.77;;;2.85;;
20639;SDS011;10479;53.524;9.846;2023-04-03T04:48:33;12.05;;;3.03;;
20639;SDS011;10479;53.524;9.846;2023-04-03T04:50:59;15.95;;;3.38;;
20639;SDS011;10479;53.524;9.846;2023-04-03T04:53:24;13.80;;;3.45;;
20639;SDS011;10479;53.524;9.846;2023-04-03T04:55:50;13.55;;;3.47;;
20639;SDS011;10479;53.524;9.846;2023-04-03T04:58:16;14.75;;;3.85;;
20639;SDS011;10479;53.524;9.846;2023-04-03T05:00:42;11.40;;;2.53;;
20639;SDS011;10479;53.524;9.846;2023-04-03T05:03:08;14.32;;;3.65;;
20639;SDS011;10479;53.524;9.846;2023-04-03T05:05:33;14.32;;;3.50;;
20639;SDS011;10479;53.524;9.846;2023-04-03T05:07:59;12.48;;;3.17;;
20639;SDS011;10479;53.524;9.846;2023-04-03T05:10:24;15.20;;;4.38;;
20639;SDS011;10479;53.524;9.846;2023-04-03T05:12:50;12.75;;;3.60;;
20639;SDS011;10479;53.524;9.846;2023-04-03T05:15:15;11.32;;;3.75;;
20639;SDS011;10479;53.524;9.846;2023-04-03T05:17:41;14.38;;;4.72;;
20639;SDS011;10479;53.524;9.846;2023-04-03T05:20:07;10.63;;;4.60;;
20639;SDS011;10479;53.524;9.846;2023-04-03T05:22:33;11.18;;;4.75;;
20639;SDS011;10479;53.524;9.846;2023-04-03T05:24:59;13.77;;;4.22;;
20639;SDS011;10479;53.524;9.846;2023-04-03T05:27:25;16.98;;;5.63;;
20639;SDS011;10479;53.524;9.846;2023-04-03T05:29:53;15.65;;;4.68;;
20639;SDS011;10479;53.524;9.846;2023-04-03T05:32:18;15.38;;;4.50;;
20639;SDS011;10479;53.524;9.846;2023-04-03T05:34:44;11.93;;;4.97;;
20639;SDS011;10479;53.524;9.846;2023-04-03T05:37:09;14.35;;;3.78;;
20639;SDS011;10479;53.524;9.846;2023-04-03T05:39:35;14.88;;;3.40;;
20639;SDS011;10479;53.524;9.846;2023-04-03T05:42:01;14.70;;;3.70;;
20639;SDS011;10479;53.524;9.846;2023-04-03T05:44:26;12.10;;;3.58;;
20639;SDS011;10479;53.524;9.846;2023-04-03T05:46:51;12.10;;;3.95;;
20639;SDS011;10479;53.524;9.846;2023-04-03T05:49:17;18.77;;;3.08;;
20639;SDS011;10479;53.524;9.846;2023-04-03T05:51:42;10.95;;;3.20;;
20639;SDS011;10479;53.524;9.846;2023-04-03T05:54:13;10.20;;;3.30;;
20639;SDS011;10479;53.524;9.846;2023-04-03T05:56:43;16.35;;;3.10;;
20639;SDS011;10479;53.524;9.846;2023-04-03T05:59:08;14.55;;;3.05;;
20639;SDS011;10479;53.524;9.846;2023-04-03T06:01:34;14.80;;;3.58;;
20639;SDS011;10479;53.524;9.846;2023-04-03T06:04:00;12.48;;;2.67;;
20639;SDS011;10479;53.524;9.846;2023-04-03T06:06:25;15.80;;;3.20;;
20639;SDS011;10479;53.524;9.846;2023-04-03T06:08:51;13.45;;;2.63;;
20639;SDS011;10479;53.524;9.846;2023-04-03T06:11:17;12.82;;;3.08;;
20639;SDS011;10479;53.524;9.846;2023-04-03T06:13:42;11.10;;;2.50;;
20639;SDS011;10479;53.524;9.846;2023-04-03T06:16:09;11.75;;;2.90;;
20639;SDS011;10479;53.524;9.846;2023-04-03T06:18:37;8.80;;;2.08;;
20639;SDS011;10479;53.524;9.846;2023-04-03T06:21:02;13.52;;;3.40;;
20639;SDS011;10479;53.524;9.846;2023-04-03T06:23:29;10.00;;;2.63;;
20639;SDS011;10479;53.524;9.846;2023-04-03T06:25:55;12.35;;;3.03;;
20639;SDS011;10479;53.524;9.846;2023-04-03T06:28:20;9.52;;;2.63;;
20639;SDS011;10479;53.524;9.846;2023-04-03T06:30:46;8.20;;;2.17;;
20639;SDS011;10479;53.524;9.846;2023-04-03T06:33:11;16.10;;;3.00;;
20639;SDS011;10479;53.524;9.846;2023-04-03T06:35:37;12.90;;;3.30;;
20639;SDS011;10479;53.524;9.846;2023-04-03T06:38:03;7.88;;;2.15;;
20639;SDS011;10479;53.524;9.846;2023-04-03T06:40:34;6.25;;;2.15;;
20639;SDS011;10479;53.524;9.846;2023-04-03T06:42:59;11.52;;;2.13;;
20639;SDS011;10479;53.524;9.846;2023-04-03T06:45:25;10.30;;;2.35;;
20639;SDS011;10479;53.524;9.846;2023-04-03T06:47:50;9.70;;;2.25;;
20639;SDS011;10479;53.524;9.846;2023-04-03T06:50:16;11.57;;;2.17;;
20639;SDS011;10479;53.524;9.846;2023-04-03T06:52:41;12.35;;;2.10;;
20639;SDS011;10479;53.524;9.846;2023-04-03T06:55:07;9.68;;;1.85;;
20639;SDS011;10479;53.524;9.846;2023-04-03T06:57:34;6.28;;;1.75;;
20639;SDS011;10479;53.524;9.846;2023-04-03T07:00:00;11.68;;;2.00;;
20639;SDS011;10479;53.524;9.846;2023-04-03T07:02:26;6.43;;;1.98;;
20639;SDS011;10479;53.524;9.846;2023-04-03T07:04:52;7.05;;;1.60;;
20639;SDS011;10479;53.524;9.846;2023-04-03T07:07:17;12.18;;;2.15;;
20639;SDS011;10479;53.524;9.846;2023-04-03T07:09:43;8.07;;;1.80;;
20639;SDS011;10479;53.524;9.846;2023-04-03T07:12:08;6.88;;;1.77;;
20639;SDS011;10479;53.524;9.846;2023-04-03T07:14:34;9.95;;;1.60;;
20639;SDS011;10479;53.524;9.846;2023-04-03T07:16:59;7.38;;;1.50;;
20639;SDS011;10479;53.524;9.846;2023-04-03T07:19:25;14.23;;;2.20;;
20639;SDS011;10479;53.524;9.846;2023-04-03T07:21:53;10.93;;;1.70;;
20639;SDS011;10479;53.524;9.846;2023-04-03T07:24:18;6.22;;;1.80;;
20639;SDS011;10479;53.524;9.846;2023-04-03T07:26:44;6.78;;;1.38;;
20639;SDS011;10479;53.524;9.846;2023-04-03T07:29:10;6.80;;;2.03;;
20639;SDS011;10479;53.524;9.846;2023-04-03T07:31:35;7.07;;;1.73;;
20639;SDS011;10479;53.524;9.846;2023-04-03T07:34:01;7.60;;;1.58;;
20639;SDS011;10479;53.524;9.846;2023-04-03T07:36:27;5.05;;;1.20;;
20639;SDS011;10479;53.524;9.846;2023-04-03T07:38:54;6.80;;;1.50;;
20639;SDS011;10479;53.524;9.846;2023-04-03T07:41:19;7.35;;;1.30;;
20639;SDS011;10479;53.524;9.846;2023-04-03T07:43:47;4.53;;;1.00;;
20639;SDS011;10479;53.524;9.846;2023-04-03T07:46:14;8.50;;;1.40;;
20639;SDS011;10479;53.524;9.846;2023-04-03T07:48:40;8.70;;;1.60;;
20639;SDS011;10479;53.524;9.846;2023-04-03T07:51:06;7.72;;;1.30;;
20639;SDS011;10479;53.524;9.846;2023-04-03T07:53:32;6.03;;;1.40;;
20639;SDS011;10479;53.524;9.846;2023-04-03T07:55:58;11.02;;;1.45;;
20639;SDS011;10479;53.524;9.846;2023-04-03T07:58:24;7.88;;;0.85;;
20639;SDS011;10479;53.524;9.846;2023-04-03T08:00:50;7.20;;;1.15;;
20639;SDS011;10479;53.524;9.846;2023-04-03T08:03:16;7.82;;;1.08;;
20639;SDS011;10479;53.524;9.846;2023-04-03T08:05:44;6.80;;;1.05;;
20639;SDS011;10479;53.524;9.846;2023-04-03T08:08:12;4.82;;;1.00;;
20639;SDS011;10479;53.524;9.846;2023-04-03T08:10:38;7.45;;;0.98;;
20639;SDS011;10479;53.524;9.846;2023-04-03T08:13:04;6.53;;;1.00;;
20639;SDS011;10479;53.524;9.846;2023-04-03T08:15:31;5.47;;;1.00;;
20639;SDS011;10479;53.524;9.846;2023-04-03T08:17:56;2.92;;;0.73;;
20639;SDS011;10479;53.524;9.846;2023-04-03T08:20:23;4.32;;;1.10;;
20639;SDS011;10479;53.524;9.846;2023-04-03T08:22:48;6.40;;;1.10;;
20639;SDS011;10479;53.524;9.846;2023-04-03T08:25:14;3.83;;;0.88;;
20639;SDS011;10479;53.524;9.846;2023-04-03T08:27:40;7.13;;;1.13;;
20639;SDS011;10479;53.524;9.846;2023-04-03T08:30:05;6.30;;;0.90;;
20639;SDS011;10479;53.524;9.846;2023-04-03T08:32:33;6.28;;;1.00;;
20639;SDS011;10479;53.524;9.846;2023-04-03T08:34:59;5.45;;;0.68;;
20639;SDS011;10479;53.524;9.846;2023-04-03T08:37:25;8.55;;;0.95;;
20639;SDS011;10479;53.524;9.846;2023-04-03T08:39:50;7.53;;;1.10;;
20639;SDS011;10479;53.524;9.846;2023-04-03T08:42:36;5.30;;;1.08;;
20639;SDS011;10479;53.524;9.846;2023-04-03T08:45:08;4.55;;;1.00;;
20639;SDS011;10479;53.524;9.846;2023-04-03T08:50:05;4.82;;;1.00;;
20639;SDS011;10479;53.524;9.846;2023-04-03T08:52:37;6.13;;;1.35;;
20639;SDS011;10479;53.524;9.846;2023-04-03T08:55:06;10.33;;;1.17;;
20639;SDS011;10479;53.524;9.846;2023-04-03T08:57:45;9.90;;;1.15;;
20639;SDS011;10479;53.524;9.846;2023-04-03T09:02:46;5.47;;;0.98;;
20639;SDS011;10479;53.524;9.846;2023-04-03T09:05:20;4.30;;;1.15;;
20639;SDS011;10479;53.524;9.846;2023-04-03T09:10:32;4.95;;;0.98;;
20639;SDS011;10479;53.524;9.846;2023-04-03T09:13:06;2.63;;;0.80;;
20639;SDS011;10479;53.524;9.846;2023-04-03T09:15:32;4.15;;;0.80;;
20639;SDS011;10479;53.524;9.846;2023-04-03T09:21:00;5.47;;;1.10;;
20639;SDS011;10479;53.524;9.846;2023-04-03T09:23:41;3.75;;;1.00;;
20639;SDS011;10479;53.524;9.846;2023-04-03T09:26:19;7.28;;;1.00;;
20639;SDS011;10479;53.524;9.846;2023-04-03T09:28:49;5.50;;;1.10;;
20639;SDS011;10479;53.524;9.846;2023-04-03T09:31:19;5.40;;;1.25;;
20639;SDS011;10479;53.524;9.846;2023-04-03T09:33:45;3.83;;;1.40;;
20639;SDS011;10479;53.524;9.846;2023-04-03T09:36:13;7.50;;;1.27;;
20639;SDS011;10479;53.524;9.846;2023-04-03T09:38:38;6.70;;;1.40;;
20639;SDS011;10479;53.524;9.846;2023-04-03T09:41:13;5.68;;;1.20;;
20639;SDS011;10479;53.524;9.846;2023-04-03T09:43:43;7.18;;;1.20;;
20639;SDS011;10479;53.524;9.846;2023-04-03T09:48:49;5.10;;;1.05;;
20639;SDS011;10479;53.524;9.846;2023-04-03T09:51:16;3.80;;;1.00;;
20639;SDS011;10479;53.524;9.846;2023-04-03T09:53:42;6.10;;;1.05;;
20639;SDS011;10479;53.524;9.846;2023-04-03T09:58:40;5.28;;;1.10;;
20639;SDS011;10479;53.524;9.846;2023-04-03T10:01:31;5.35;;;1.00;;
20639;SDS011;10479;53.524;9.846;2023-04-03T10:06:29;4.85;;;0.90;;
20639;SDS011;10479;53.524;9.846;2023-04-03T10:09:00;3.70;;;0.93;;
20639;SDS011;10479;53.524;9.846;2023-04-03T10:11:30;7.35;;;0.93;;
20639;SDS011;10479;53.524;9.846;2023-04-03T10:13:57;4.50;;;0.73;;
20639;SDS011;10479;53.524;9.846;2023-04-03T10:22:13;4.28;;;0.70;;
20639;SDS011;10479;53.524;9.846;2023-04-03T10:25:28;3.67;;;0.90;;
20639;SDS011;10479;53.524;9.846;2023-04-03T10:28:00;5.03;;;0.80;;
20639;SDS011;10479;53.524;9.846;2023-04-03T10:39:17;4.65;;;0.88;;
20639;SDS011;10479;53.524;9.846;2023-04-03T10:57:52;2.97;;;0.85;;
20639;SDS011;10479;53.524;9.846;2023-04-03T11:00:21;5.70;;;1.10;;
20639;SDS011;10479;53.524;9.846;2023-04-03T11:03:02;2.38;;;0.70;;
20639;SDS011;10479;53.524;9.846;2023-04-03T11:05:43;4.13;;;0.82;;
20639;SDS011;10479;53.524;9.846;2023-04-03T11:10:49;3.40;;;0.80;;
20639;SDS011;10479;53.524;9.846;2023-04-03T11:13:28;2.15;;;0.50;;
20639;SDS011;10479;53.524;9.846;2023-04-03T11:15:58;5.40;;;0.80;;
20639;SDS011;10479;53.524;9.846;2023-04-03T11:18:31;4.68;;;0.90;;
20639;SDS011;10479;53.524;9.846;2023-04-03T11:21:07;4.28;;;0.98;;
20639;SDS011;10479;53.524;9.846;2023-04-03T11:23:38;3.83;;;0.90;;
20639;SDS011;10479;53.524;9.846;2023-04-03T11:26:12;4.13;;;0.82;;
20639;SDS011;10479;53.524;9.846;2023-04-03T11:28:39;3.67;;;1.13;;
20639;SDS011;10479;53.524;9.846;2023-04-03T11:36:54;2.70;;;0.85;;
20639;SDS011;10479;53.524;9.846;2023-04-03T11:39:25;4.72;;;1.05;;
20639;SDS011;10479;53.524;9.846;2023-04-03T11:41:53;4.67;;;1.33;;
20639;SDS011;10479;53.524;9.846;2023-04-03T11:44:35;4.68;;;1.25;;
20639;SDS011;10479;53.524;9.846;2023-04-03T11:47:02;3.08;;;1.02;;
20639;SDS011;10479;53.524;9.846;2023-04-03T11:58:01;4.03;;;1.00;;
20639;SDS011;10479;53.524;9.846;2023-04-03T12:00:49;5.22;;;0.90;;
20639;SDS011;10479;53.524;9.846;2023-04-03T12:11:24;3.40;;;1.00;;
20639;SDS011;10479;53.524;9.846;2023-04-03T12:16:27;3.67;;;0.82;;
20639;SDS011;10479;53.524;9.846;2023-04-03T12:26:44;4.10;;;1.15;;
20639;SDS011;10479;53.524;9.846;2023-04-03T12:29:58;4.80;;;0.98;;
20639;SDS011;10479;53.524;9.846;2023-04-03T12:46:13;5.25;;;0.90;;
20639;SDS011;10479;53.524;9.846;2023-04-03T12:51:12;5.10;;;1.08;;
20639;SDS011;10479;53.524;9.846;2023-04-03T12:53:39;4.70;;;1.00;;
20639;SDS011;10479;53.524;9.846;2023-04-03T12:56:29;4.57;;;1.40;;
20639;SDS011;10479;53.524;9.846;2023-04-03T12:59:12;5.10;;;1.20;;
20639;SDS011;10479;53.524;9.846;2023-04-03T13:01:37;6.35;;;1.45;;
20639;SDS011;10479;53.524;9.846;2023-04-03T13:04:03;5.38;;;1.02;;
20639;SDS011;10479;53.524;9.846;2023-04-03T13:06:48;5.47;;;1.58;;
20639;SDS011;10479;53.524;9.846;2023-04-03T13:09:18;7.95;;;1.58;;
20639;SDS011;10479;53.524;9.846;2023-04-03T13:11:50;5.07;;;1.45;;
20639;SDS011;10479;53.524;9.846;2023-04-03T13:14:18;5.93;;;1.08;;
20639;SDS011;10479;53.524;9.846;2023-04-03T13:19:35;5.15;;;1.08;;
20639;SDS011;10479;53.524;9.846;2023-04-03T13:22:02;5.25;;;1.25;;
20639;SDS011;10479;53.524;9.846;2023-04-03T13:24:30;2.28;;;0.70;;
20639;SDS011;10479;53.524;9.846;2023-04-03T13:26:58;4.80;;;0.80;;
20639;SDS011;10479;53.524;9.846;2023-04-03T13:29:26;4.18;;;0.93;;
20639;SDS011;10479;53.524;9.846;2023-04-03T13:31:54;5.28;;;0.80;;
20639;SDS011;10479;53.524;9.846;2023-04-03T13:34:21;5.45;;;0.85;;
20639;SDS011;10479;53.524;9.846;2023-04-03T13:41:47;3.80;;;1.00;;
20639;SDS011;10479;53.524;9.846;2023-04-03T13:47:22;3.63;;;0.82;;
20639;SDS011;10479;53.524;9.846;2023-04-03T13:50:01;2.90;;;0.80;;
20639;SDS011;10479;53.524;9.846;2023-04-03T13:55:02;4.68;;;1.23;;
20639;SDS011;10479;53.524;9.846;2023-04-03T13:57:58;3.80;;;0.80;;
20639;SDS011;10479;53.524;9.846;2023-04-03T14:00:46;4.45;;;1.10;;
20639;SDS011;10479;53.524;9.846;2023-04-03T14:03:26;6.55;;;0.85;;
20639;SDS011;10479;53.524;9.846;2023-04-03T14:05:53;4.35;;;1.13;;
20639;SDS011;10479;53.524;9.846;2023-04-03T14:08:18;3.78;;;1.05;;
20639;SDS011;10479;53.524;9.846;2023-04-03T14:10:44;5.40;;;1.00;;
20639;SDS011;10479;53.524;9.846;2023-04-03T14:13:14;3.80;;;1.00;;
20639;SDS011;10479;53.524;9.846;2023-04-03T14:15:40;4.65;;;0.90;;
20639;SDS011;10479;53.524;9.846;2023-04-03T14:18:10;5.00;;;1.13;;
20639;SDS011;10479;53.524;9.846;2023-04-03T14:20:37;4.18;;;1.20;;
20639;SDS011;10479;53.524;9.846;2023-04-03T14:23:02;5.15;;;1.10;;
20639;SDS011;10479;53.524;9.846;2023-04-03T14:25:27;3.67;;;0.85;;
20639;SDS011;10479;53.524;9.846;2023-04-03T14:27:54;3.47;;;1.00;;
20639;SDS011;10479;53.524;9.846;2023-04-03T14:30:22;3.08;;;0.90;;
20639;SDS011;10479;53.524;9.846;2023-04-03T14:32:49;3.90;;;0.80;;
20639;SDS011;10479;53.524;9.846;2023-04-03T14:35:15;3.47;;;1.10;;
20639;SDS011;10479;53.524;9.846;2023-04-03T14:37:41;4.20;;;1.00;;
20639;SDS011;10479;53.524;9.846;2023-04-03T14:40:08;3.65;;;1.00;;
20639;SDS011;10479;53.524;9.846;2023-04-03T14:42:37;2.80;;;0.90;;
20639;SDS011;10479;53.524;9.846;2023-04-03T14:45:06;4.72;;;1.30;;
20639;SDS011;10479;53.524;9.846;2023-04-03T14:47:34;5.13;;;1.70;;
20639;SDS011;10479;53.524;9.846;2023-04-03T14:50:03;5.32;;;1.00;;
20639;SDS011;10479;53.524;9.846;2023-04-03T14:52:31;4.57;;;0.98;;
20639;SDS011;10479;53.524;9.846;2023-04-03T14:54:58;6.68;;;1.00;;
20639;SDS011;10479;53.524;9.846;2023-04-03T14:57:25;6.68;;;0.90;;
20639;SDS011;10479;53.524;9.846;2023-04-03T14:59:52;4.60;;;1.10;;
20639;SDS011;10479;53.524;9.846;2023-04-03T15:02:31;4.50;;;0.98;;
20639;SDS011;10479;53.524;9.846;2023-04-03T15:04:58;4.70;;;0.85;;
20639;SDS011;10479;53.524;9.846;2023-04-03T15:07:25;4.10;;;1.00;;
20639;SDS011;10479;53.524;9.846;2023-04-03T15:09:52;2.65;;;0.90;;
20639;SDS011;10479;53.524;9.846;2023-04-03T15:12:21;7.20;;;1.13;;
20639;SDS011;10479;53.524;9.846;2023-04-03T15:14:47;5.13;;;1.00;;
20639;SDS011;10479;53.524;9.846;2023-04-03T15:17:16;4.30;;;0.90;;
20639;SDS011;10479;53.524;9.846;2023-04-03T15:19:43;2.83;;;0.82;;
20639;SDS011;10479;53.524;9.846;2023-04-03T15:22:19;3.95;;;0.90;;
20639;SDS011;10479;53.524;9.846;2023-04-03T15:24:45;6.95;;;1.13;;
20639;SDS011;10479;53.524;9.846;2023-04-03T15:27:10;4.20;;;1.10;;
20639;SDS011;10479;53.524;9.846;2023-04-03T15:29:37;3.92;;;0.88;;
20639;SDS011;10479;53.524;9.846;2023-04-03T15:32:04;7.53;;;1.10;;
20639;SDS011;10479;53.524;9.846;2023-04-03T15:34:30;6.22;;;1.15;;
20639;SDS011;10479;53.524;9.846;2023-04-03T15:36:56;6.47;;;1.15;;
20639;SDS011;10479;53.524;9.846;2023-04-03T15:39:21;4.57;;;1.20;;
20639;SDS011;10479;53.524;9.846;2023-04-03T15:41:48;5.68;;;1.17;;
20639;SDS011;10479;53.524;9.846;2023-04-03T15:44:13;6.68;;;1.17;;
20639;SDS011;10479;53.524;9.846;2023-04-03T15:46:42;4.05;;;1.40;;
20639;SDS011;10479;53.524;9.846;2023-04-03T15:49:08;6.50;;;0.90;;
20639;SDS011;10479;53.524;9.846;2023-04-03T15:51:34;4.35;;;1.15;;
20639;SDS011;10479;53.524;9.846;2023-04-03T15:54:00;2.88;;;0.90;;
20639;SDS011;10479;53.524;9.846;2023-04-03T15:56:25;3.90;;;0.98;;
20639;SDS011;10479;53.524;9.846;2023-04-03T15:58:51;6.63;;;1.30;;
20639;SDS011;10479;53.524;9.846;2023-04-03T16:01:16;5.25;;;1.33;;
20639;SDS011;10479;53.524;9.846;2023-04-03T16:03:42;4.32;;;1.10;;
20639;SDS011;10479;53.524;9.846;2023-04-03T16:06:14;4.07;;;1.20;;
20639;SDS011;10479;53.524;9.846;2023-04-03T16:08:40;3.95;;;1.15;;
20639;SDS011;10479;53.524;9.846;2023-04-03T16:11:06;4.38;;;1.27;;
20639;SDS011;10479;53.524;9.846;2023-04-03T16:13:31;5.28;;;1.00;;
20639;SDS011;10479;53.524;9.846;2023-04-03T16:15:58;3.20;;;1.00;;
20639;SDS011;10479;53.524;9.846;2023-04-03T16:18:24;4.22;;;1.35;;
20639;SDS011;10479;53.524;9.846;2023-04-03T16:20:49;8.65;;;1.40;;
20639;SDS011;10479;53.524;9.846;2023-04-03T16:23:15;3.60;;;1.20;;
20639;SDS011;10479;53.524;9.846;2023-04-03T16:25:41;7.50;;;1.27;;
20639;SDS011;10479;53.524;9.846;2023-04-03T16:28:11;4.10;;;1.13;;
20639;SDS011;10479;53.524;9.846;2023-04-03T16:30:39;4.32;;;1.02;;
20639;SDS011;10479;53.524;9.846;2023-04-03T16:33:05;6.03;;;1.40;;
20639;SDS011;10479;53.524;9.846;2023-04-03T16:35:31;3.25;;;1.17;;
20639;SDS011;10479;53.524;9.846;2023-04-03T16:37:56;5.40;;;1.38;;
20639;SDS011;10479;53.524;9.846;2023-04-03T16:40:22;8.00;;;1.65;;
20639;SDS011;10479;53.524;9.846;2023-04-03T16:42:48;4.70;;;1.50;;
20639;SDS011;10479;53.524;9.846;2023-04-03T16:45:14;4.95;;;1.50;;